Terminal Aerodrome Forecast
Issued by NWS Flagstaff, AZ

Home | Current Version | Previous Version | Text Only | Print | Product List | Glossary On
Versions: 1 2 3 4 5 6 7 8 9 10 11 12 13 14
000
FTUS45 KFGZ 240153 AAA
TAFINW
TAF AMD
KINW 240153Z 2402/2424 13010KT P6SM BKN120
      TEMPO 2402/2405 VRB15G25KT 6SM -TSRA BKN080CB
     FM240700 VRB05KT P6SM SCT130=

USA.gov is the U.S. government's official web portal to all federal, state and local government web resources and services.